Lance — LGKI — position and weather

sailwx.info

Track history (hours):
 
Tides and Currents Weather Stations Pressure Air Temp Water Temp Dewpoint Dewpoint Depression Visibility Wind Speed Wind Dir Waves Ship Positions

Oceanographic research ship Lance (Norway)

Detailed information on ship capabilities available from University of Delaware's Ocean Information Center and ARCUS's ALIAS (Arctic Logistics Information and Support) project.

Last reported at 2019-Nov-30 13:29 UTC. Time now 2019-Dec-12 08:03 UTC.
Position N 79°39' E 010°12'.
Warning: this ship's position is 11 days out of date.

Type: Ship. MMSI: 258236000.

Date/timePositionNaut miles runAvg speedWind from/ knotsBaromVisibWave heightAir tempDewpointWater temp
2019-Nov-30 13:29N 79°39' E 010°12'9 9.2
2019-Nov-30 12:30N 79°30' E 010°08'67 9.6
2019-Nov-30 05:30N 78°24' E 010°55'5 9.6
2019-Nov-30 05:00N 78°20' E 011°08'15 9.8
2019-Nov-30 03:30N 78°10' E 011°59'10 9.9
2019-Nov-30 02:30N 78°09' E 012°47'1610.9
2019-Nov-30 01:00N 78°10' E 014°06'18 9.0
2019-Nov-29 23:00N 78°15' E 015°33'0 0.0
2019-Nov-29 21:30N 78°15' E 015°33'0 0.0
2019-Nov-29 21:00N 78°15' E 015°33'0 0.0
2019-Nov-29 20:30N 78°15' E 015°33'0 0.0
2019-Nov-29 19:30N 78°15' E 015°33'0 0.0
2019-Nov-29 18:00N 78°15' E 015°33'0 0.0
2019-Nov-29 17:30N 78°15' E 015°33'0 0.0
2019-Nov-29 16:30N 78°15' E 015°33'0 0.0
2019-Nov-29 16:00N 78°15' E 015°33'0 0.0
2019-Nov-29 15:30N 78°15' E 015°33'0 0.0
2019-Nov-29 14:00N 78°15' E 015°33'0 0.0
2019-Nov-29 12:00N 78°15' E 015°33'0 0.0
2019-Nov-29 11:29N 78°15' E 015°33'0 0.0
2019-Nov-29 09:30N 78°15' E 015°33'0 0.0
2019-Nov-29 07:30N 78°15' E 015°33'1 1.0
2019-Nov-29 07:00N 78°15' E 015°33'3 6.1
2019-Nov-29 06:30N 78°16' E 015°20'7 4.9
2019-Nov-29 05:00N 78°13' E 014°48'510.3
2019-Nov-29 04:30N 78°11' E 014°26'1010.3
2019-Nov-29 03:30N 78°06' E 013°39'9 8.6
2019-Nov-29 02:30N 78°01' E 013°07'5 9.3
2019-Nov-29 02:00N 77°56' E 013°08'1710.9
2019-Nov-29 00:30N 77°40' E 013°19'3210.6
2019-Nov-28 21:30N 77°09' E 013°53'1711.1
2019-Nov-28 20:00N 76°53' E 014°18'510.7
2019-Nov-28 19:30N 76°49' E 014°28'510.6
2019-Nov-28 19:00N 76°44' E 014°38'1110.8
2019-Nov-28 18:00N 76°33' E 014°53'107 9.3
2019-Nov-28 06:30N 74°50' E 016°55'13 8.7
2019-Nov-28 05:00N 74°38' E 017°12'4 8.5
2019-Nov-28 04:30N 74°34' E 017°17'17 8.7
2019-Nov-28 02:30N 74°18' E 017°37'9 9.1
2019-Nov-28 01:30N 74°09' E 017°44'16910.9
2019-Nov-27 10:00N 71°25' E 020°07'611.1
2019-Nov-27 09:30N 71°20' E 020°10'1111.1
2019-Nov-27 08:30N 71°09' E 020°19'2311.3
2019-Nov-27 06:30N 70°47' E 020°35'30 9.9
2019-Nov-27 03:30N 70°18' E 020°54'10 9.8
2019-Nov-27 02:29N 70°08' E 020°60'27 7.9
2019-Nov-26 23:00N 69°53' E 019°54'611.5
2019-Nov-26 22:30N 69°50' E 019°40'1212.1
2019-Nov-26 21:30N 69°46' E 019°06'7 4.9
2019-Nov-26 20:00N 69°39' E 018°59'0 0.0
2019-Nov-26 19:30N 69°39' E 018°59'0 0.0
2019-Nov-26 19:00N 69°39' E 018°59'0 0.0
2019-Nov-26 14:30N 69°39' E 018°59'0 0.0
2019-Nov-26 13:00N 69°39' E 018°59'0 0.0
2019-Nov-26 10:30N 69°39' E 018°59'0 0.0
2019-Nov-26 09:00N 69°39' E 018°59'0 0.0
2019-Nov-26 07:30N 69°39' E 018°59'0 0.0
2019-Nov-26 07:00N 69°39' E 018°59'0 0.0
2019-Nov-26 06:30N 69°39' E 018°59'0 0.0
2019-Nov-26 05:30N 69°39' E 018°59'0 0.0
2019-Nov-26 03:30N 69°39' E 018°59'0 0.0
2019-Nov-26 00:00N 69°39' E 018°59'0 0.0
2019-Nov-25 18:30N 69°39' E 018°59'0 0.0
2019-Nov-25 16:30N 69°39' E 018°59'0 0.0
2019-Nov-25 13:30N 69°39' E 018°59'0 0.0
2019-Nov-25 11:30N 69°39' E 018°59'0 0.0
2019-Nov-25 11:00N 69°39' E 018°59'0 0.0
2019-Nov-25 09:00N 69°39' E 018°59'0 0.0
2019-Nov-25 01:00N 69°39' E 018°59'0 0.0
2019-Nov-24 21:30N 69°39' E 018°59'0 0.0
2019-Nov-24 21:00N 69°39' E 018°59'0 0.0
2019-Nov-24 19:30N 69°39' E 018°59'0 0.0
2019-Nov-24 17:30N 69°39' E 018°59'0 0.0
2019-Nov-24 17:00N 69°39' E 018°59'0 0.0
2019-Nov-24 14:30N 69°39' E 018°59'0 0.0
2019-Nov-24 12:30N 69°39' E 018°59'0 0.0
2019-Nov-24 12:00N 69°39' E 018°59'0 0.0
2019-Nov-24 08:30N 69°39' E 018°59'0 0.0
2019-Nov-24 06:30N 69°39' E 018°59'0 0.0
2019-Nov-24 05:00N 69°39' E 018°59'0 0.0
2019-Nov-24 03:30N 69°39' E 018°59'0 0.0
2019-Nov-24 03:00N 69°39' E 018°59'0 0.0
2019-Nov-24 01:00N 69°39' E 018°59'0 0.0
2019-Nov-24 00:00N 69°39' E 018°59'0 0.0
2019-Nov-23 23:30N 69°39' E 018°59'0 0.0
2019-Nov-23 22:00N 69°39' E 018°59'0 0.0
2019-Nov-23 17:30N 69°39' E 018°59'0 0.0
2019-Nov-23 15:30N 69°39' E 018°59'0 0.0
2019-Nov-23 13:00N 69°39' E 018°59'0 0.0
2019-Nov-23 12:30N 69°39' E 018°59'0 0.0
2019-Nov-23 10:00N 69°39' E 018°59'0 0.0
2019-Nov-23 09:30N 69°39' E 018°59'0 0.0
2019-Nov-23 07:00N 69°39' E 018°59'0 0.0
2019-Nov-23 04:00N 69°39' E 018°59'0 0.0
2019-Nov-23 03:30N 69°39' E 018°59'0 0.0
2019-Nov-23 03:00N 69°39' E 018°59'0 0.0
2019-Nov-23 01:30N 69°39' E 018°59'0 0.0
2019-Nov-23 00:30N 69°39' E 018°59'0 0.0
2019-Nov-23 00:00N 69°39' E 018°59'0 0.0
2019-Nov-22 22:29N 69°39' E 018°59'0 0.0
2019-Nov-22 21:30N 69°39' E 018°59'0 0.0
2019-Nov-22 20:00N 69°39' E 018°59'0 0.0
2019-Nov-22 19:30N 69°39' E 018°59'0 0.0
2019-Nov-22 17:30N 69°39' E 018°59'0 0.0
2019-Nov-22 16:00N 69°39' E 018°59'0 0.0
2019-Nov-22 15:00N 69°39' E 018°59'0 0.0
2019-Nov-22 14:30N 69°39' E 018°59'0 0.0
2019-Nov-22 13:07N 69°39' E 018°59'0 0.0
2019-Nov-22 12:00N 69°39' E 018°59'0 0.0
2019-Nov-22 11:00N 69°39' E 018°59'0 0.0
2019-Nov-22 09:00N 69°39' E 018°59'0 0.0
2019-Nov-22 08:29N 69°39' E 018°59'0 0.0
2019-Nov-22 07:30N 69°39' E 018°59'0 0.0
2019-Nov-22 07:00N 69°39' E 018°59'0 0.0
2019-Nov-22 05:59N 69°39' E 018°59'0 0.0
2019-Nov-22 03:30N 69°39' E 018°59'0 0.0
2019-Nov-22 02:29N 69°39' E 018°59'0 0.0
2019-Nov-21 23:30N 69°39' E 018°59'0 0.0
2019-Nov-21 19:30N 69°39' E 018°59'0 0.0
2019-Nov-21 18:00N 69°39' E 018°59'0 0.0
2019-Nov-21 17:00N 69°39' E 018°59'0 0.0
2019-Nov-21 16:00N 69°39' E 018°59'0 0.0
2019-Nov-21 15:30N 69°39' E 018°59'0 0.0
2019-Nov-21 12:30N 69°39' E 018°59'0 0.0
2019-Nov-21 12:00N 69°39' E 018°59'0 0.0
2019-Nov-21 10:30N 69°39' E 018°59'0 0.0
2019-Nov-21 10:00N 69°39' E 018°59'0 0.0
2019-Nov-21 09:00N 69°39' E 018°59'0 0.0
2019-Nov-21 07:30N 69°39' E 018°59'0 0.0
2019-Nov-21 05:30N 69°39' E 018°59'0 0.0
2019-Nov-21 03:30N 69°39' E 018°59'0 0.0
2019-Nov-21 01:30N 69°39' E 018°59'0 0.0
2019-Nov-21 00:30N 69°39' E 018°59'0 0.0
2019-Nov-20 23:00N 69°39' E 018°59'0 0.0
2019-Nov-20 22:00N 69°39' E 018°59'0 0.0
2019-Nov-20 21:29N 69°39' E 018°59'0 0.0
2019-Nov-20 21:00N 69°39' E 018°59'0 0.0
2019-Nov-20 20:00N 69°39' E 018°59'0 0.0
2019-Nov-20 18:30N 69°39' E 018°59'0 0.0
2019-Nov-20 18:00N 69°39' E 018°59'0 0.0
2019-Nov-20 14:30N 69°39' E 018°59'  
Track history (hours):
 
Tides and Currents Weather Stations Pressure Air Temp Water Temp Dewpoint Dewpoint Depression Visibility Wind Speed Wind Dir Waves Ship Positions

Oceanographic research ship Lance (Norway)

Detailed information on ship capabilities available from University of Delaware's Ocean Information Center and ARCUS's ALIAS (Arctic Logistics Information and Support) project.

Last reported at 2019-Nov-30 13:29 UTC. Time now 2019-Dec-12 08:03 UTC.
Position N 79°39' E 010°12'.
Warning: this ship's position is 11 days out of date.

Type: Ship. MMSI: 258236000.

Date/timePositionNaut miles runAvg speedWind from/ knotsBaromVisibWave heightAir tempDewpointWater temp
2019-Nov-30 13:29N 79°39' E 010°12'9 9.2
2019-Nov-30 12:30N 79°30' E 010°08'67 9.6
2019-Nov-30 05:30N 78°24' E 010°55'5 9.6
2019-Nov-30 05:00N 78°20' E 011°08'15 9.8
2019-Nov-30 03:30N 78°10' E 011°59'10 9.9
2019-Nov-30 02:30N 78°09' E 012°47'1610.9
2019-Nov-30 01:00N 78°10' E 014°06'18 9.0
2019-Nov-29 23:00N 78°15' E 015°33'0 0.0
2019-Nov-29 21:30N 78°15' E 015°33'0 0.0
2019-Nov-29 21:00N 78°15' E 015°33'0 0.0
2019-Nov-29 20:30N 78°15' E 015°33'0 0.0
2019-Nov-29 19:30N 78°15' E 015°33'0 0.0
2019-Nov-29 18:00N 78°15' E 015°33'0 0.0
2019-Nov-29 17:30N 78°15' E 015°33'0 0.0
2019-Nov-29 16:30N 78°15' E 015°33'0 0.0
2019-Nov-29 16:00N 78°15' E 015°33'0 0.0
2019-Nov-29 15:30N 78°15' E 015°33'0 0.0
2019-Nov-29 14:00N 78°15' E 015°33'0 0.0
2019-Nov-29 12:00N 78°15' E 015°33'0 0.0
2019-Nov-29 11:29N 78°15' E 015°33'0 0.0
2019-Nov-29 09:30N 78°15' E 015°33'0 0.0
2019-Nov-29 07:30N 78°15' E 015°33'1 1.0
2019-Nov-29 07:00N 78°15' E 015°33'3 6.1
2019-Nov-29 06:30N 78°16' E 015°20'7 4.9
2019-Nov-29 05:00N 78°13' E 014°48'510.3
2019-Nov-29 04:30N 78°11' E 014°26'1010.3
2019-Nov-29 03:30N 78°06' E 013°39'9 8.6
2019-Nov-29 02:30N 78°01' E 013°07'5 9.3
2019-Nov-29 02:00N 77°56' E 013°08'1710.9
2019-Nov-29 00:30N 77°40' E 013°19'3210.6
2019-Nov-28 21:30N 77°09' E 013°53'1711.1
2019-Nov-28 20:00N 76°53' E 014°18'510.7
2019-Nov-28 19:30N 76°49' E 014°28'510.6
2019-Nov-28 19:00N 76°44' E 014°38'1110.8
2019-Nov-28 18:00N 76°33' E 014°53'107 9.3
2019-Nov-28 06:30N 74°50' E 016°55'13 8.7
2019-Nov-28 05:00N 74°38' E 017°12'4 8.5
2019-Nov-28 04:30N 74°34' E 017°17'17 8.7
2019-Nov-28 02:30N 74°18' E 017°37'9 9.1
2019-Nov-28 01:30N 74°09' E 017°44'16910.9
2019-Nov-27 10:00N 71°25' E 020°07'611.1
2019-Nov-27 09:30N 71°20' E 020°10'1111.1
2019-Nov-27 08:30N 71°09' E 020°19'2311.3
2019-Nov-27 06:30N 70°47' E 020°35'30 9.9
2019-Nov-27 03:30N 70°18' E 020°54'10 9.8
2019-Nov-27 02:29N 70°08' E 020°60'27 7.9
2019-Nov-26 23:00N 69°53' E 019°54'611.5
2019-Nov-26 22:30N 69°50' E 019°40'1212.1
2019-Nov-26 21:30N 69°46' E 019°06'7 4.9
2019-Nov-26 20:00N 69°39' E 018°59'0 0.0
2019-Nov-26 19:30N 69°39' E 018°59'0 0.0
2019-Nov-26 19:00N 69°39' E 018°59'0 0.0
2019-Nov-26 14:30N 69°39' E 018°59'0 0.0
2019-Nov-26 13:00N 69°39' E 018°59'0 0.0
2019-Nov-26 10:30N 69°39' E 018°59'0 0.0
2019-Nov-26 09:00N 69°39' E 018°59'0 0.0
2019-Nov-26 07:30N 69°39' E 018°59'0 0.0
2019-Nov-26 07:00N 69°39' E 018°59'0 0.0
2019-Nov-26 06:30N 69°39' E 018°59'0 0.0
2019-Nov-26 05:30N 69°39' E 018°59'0 0.0
2019-Nov-26 03:30N 69°39' E 018°59'0 0.0
2019-Nov-26 00:00N 69°39' E 018°59'0 0.0
2019-Nov-25 18:30N 69°39' E 018°59'0 0.0
2019-Nov-25 16:30N 69°39' E 018°59'0 0.0
2019-Nov-25 13:30N 69°39' E 018°59'0 0.0
2019-Nov-25 11:30N 69°39' E 018°59'0 0.0
2019-Nov-25 11:00N 69°39' E 018°59'0 0.0
2019-Nov-25 09:00N 69°39' E 018°59'0 0.0
2019-Nov-25 01:00N 69°39' E 018°59'0 0.0
2019-Nov-24 21:30N 69°39' E 018°59'0 0.0
2019-Nov-24 21:00N 69°39' E 018°59'0 0.0
2019-Nov-24 19:30N 69°39' E 018°59'0 0.0
2019-Nov-24 17:30N 69°39' E 018°59'0 0.0
2019-Nov-24 17:00N 69°39' E 018°59'0 0.0
2019-Nov-24 14:30N 69°39' E 018°59'0 0.0
2019-Nov-24 12:30N 69°39' E 018°59'0 0.0
2019-Nov-24 12:00N 69°39' E 018°59'0 0.0
2019-Nov-24 08:30N 69°39' E 018°59'0 0.0
2019-Nov-24 06:30N 69°39' E 018°59'0 0.0
2019-Nov-24 05:00N 69°39' E 018°59'0 0.0
2019-Nov-24 03:30N 69°39' E 018°59'0 0.0
2019-Nov-24 03:00N 69°39' E 018°59'0 0.0
2019-Nov-24 01:00N 69°39' E 018°59'0 0.0
2019-Nov-24 00:00N 69°39' E 018°59'0 0.0
2019-Nov-23 23:30N 69°39' E 018°59'0 0.0
2019-Nov-23 22:00N 69°39' E 018°59'0 0.0
2019-Nov-23 17:30N 69°39' E 018°59'0 0.0
2019-Nov-23 15:30N 69°39' E 018°59'0 0.0
2019-Nov-23 13:00N 69°39' E 018°59'0 0.0
2019-Nov-23 12:30N 69°39' E 018°59'0 0.0
2019-Nov-23 10:00N 69°39' E 018°59'0 0.0
2019-Nov-23 09:30N 69°39' E 018°59'0 0.0
2019-Nov-23 07:00N 69°39' E 018°59'0 0.0
2019-Nov-23 04:00N 69°39' E 018°59'0 0.0
2019-Nov-23 03:30N 69°39' E 018°59'0 0.0
2019-Nov-23 03:00N 69°39' E 018°59'0 0.0
2019-Nov-23 01:30N 69°39' E 018°59'0 0.0
2019-Nov-23 00:30N 69°39' E 018°59'0 0.0
2019-Nov-23 00:00N 69°39' E 018°59'0 0.0
2019-Nov-22 22:29N 69°39' E 018°59'0 0.0
2019-Nov-22 21:30N 69°39' E 018°59'0 0.0
2019-Nov-22 20:00N 69°39' E 018°59'0 0.0
2019-Nov-22 19:30N 69°39' E 018°59'0 0.0
2019-Nov-22 17:30N 69°39' E 018°59'0 0.0
2019-Nov-22 16:00N 69°39' E 018°59'0 0.0
2019-Nov-22 15:00N 69°39' E 018°59'0 0.0
2019-Nov-22 14:30N 69°39' E 018°59'0 0.0
2019-Nov-22 13:07N 69°39' E 018°59'0 0.0
2019-Nov-22 12:00N 69°39' E 018°59'0 0.0
2019-Nov-22 11:00N 69°39' E 018°59'0 0.0
2019-Nov-22 09:00N 69°39' E 018°59'0 0.0
2019-Nov-22 08:29N 69°39' E 018°59'0 0.0
2019-Nov-22 07:30N 69°39' E 018°59'0 0.0
2019-Nov-22 07:00N 69°39' E 018°59'0 0.0
2019-Nov-22 05:59N 69°39' E 018°59'0 0.0
2019-Nov-22 03:30N 69°39' E 018°59'0 0.0
2019-Nov-22 02:29N 69°39' E 018°59'0 0.0
2019-Nov-21 23:30N 69°39' E 018°59'0 0.0
2019-Nov-21 19:30N 69°39' E 018°59'0 0.0
2019-Nov-21 18:00N 69°39' E 018°59'0 0.0
2019-Nov-21 17:00N 69°39' E 018°59'0 0.0
2019-Nov-21 16:00N 69°39' E 018°59'0 0.0
2019-Nov-21 15:30N 69°39' E 018°59'0 0.0
2019-Nov-21 12:30N 69°39' E 018°59'0 0.0
2019-Nov-21 12:00N 69°39' E 018°59'0 0.0
2019-Nov-21 10:30N 69°39' E 018°59'0 0.0
2019-Nov-21 10:00N 69°39' E 018°59'0 0.0
2019-Nov-21 09:00N 69°39' E 018°59'0 0.0
2019-Nov-21 07:30N 69°39' E 018°59'0 0.0
2019-Nov-21 05:30N 69°39' E 018°59'0 0.0
2019-Nov-21 03:30N 69°39' E 018°59'0 0.0
2019-Nov-21 01:30N 69°39' E 018°59'0 0.0
2019-Nov-21 00:30N 69°39' E 018°59'0 0.0
2019-Nov-20 23:00N 69°39' E 018°59'0 0.0
2019-Nov-20 22:00N 69°39' E 018°59'0 0.0
2019-Nov-20 21:29N 69°39' E 018°59'0 0.0
2019-Nov-20 21:00N 69°39' E 018°59'0 0.0
2019-Nov-20 20:00N 69°39' E 018°59'0 0.0
2019-Nov-20 18:30N 69°39' E 018°59'0 0.0
2019-Nov-20 18:00N 69°39' E 018°59'0 0.0
2019-Nov-20 14:30N 69°39' E 018°59'  

Dump ship's entire track history